createdAt,value
2022-10-06T00:01:12.010Z,100754.87
2022-10-06T00:03:47.464Z,100760.31
2022-10-06T00:06:17.160Z,100759.65
2022-10-06T00:08:46.679Z,100759.37
2022-10-06T00:11:16.796Z,100762.61
2022-10-06T00:13:45.765Z,100759.86
2022-10-06T00:16:16.874Z,100758.02
2022-10-06T00:18:45.383Z,100761.49
2022-10-06T00:21:13.860Z,100758.30
2022-10-06T00:23:42.122Z,100760.19
2022-10-06T00:26:15.888Z,100756.94
2022-10-06T00:28:46.153Z,100759.33
2022-10-06T00:31:15.772Z,100757.23
2022-10-06T00:33:44.131Z,100754.42
2022-10-06T00:36:12.316Z,100754.67
2022-10-06T00:38:40.472Z,100751.58
2022-10-06T00:41:14.195Z,100747.23
2022-10-06T00:43:49.608Z,100746.95
2022-10-06T00:46:24.486Z,100750.98
2022-10-06T00:48:59.636Z,100748.91
2022-10-06T00:51:28.797Z,100757.08
2022-10-06T00:53:57.456Z,100759.23
2022-10-06T00:56:26.548Z,100758.10
2022-10-06T00:58:54.758Z,100762.71
2022-10-06T01:01:23.482Z,100763.20
2022-10-06T01:03:56.825Z,100764.95
2022-10-06T01:06:25.160Z,100764.31
2022-10-06T01:08:54.021Z,100767.34
2022-10-06T01:11:22.296Z,100769.46
2022-10-06T01:13:50.516Z,100770.20
2022-10-06T01:16:23.626Z,100769.66
2022-10-06T01:18:55.264Z,100771.98
2022-10-06T01:21:30.837Z,100777.81
2022-10-06T01:24:01.034Z,100778.11
2022-10-06T01:26:30.811Z,100784.73
2022-10-06T01:28:59.957Z,100783.70
2022-10-06T01:31:28.941Z,100784.77
2022-10-06T01:33:57.338Z,100783.27
2022-10-06T01:36:25.837Z,100779.68
2022-10-06T01:38:54.086Z,100781.90
2022-10-06T01:41:24.110Z,100785.63
2022-10-06T01:43:52.529Z,100787.77
2022-10-06T01:46:21.667Z,100791.45
2022-10-06T01:48:50.238Z,100788.02
2022-10-06T01:51:18.400Z,100791.33
2022-10-06T01:53:46.854Z,100795.23
2022-10-06T01:56:15.185Z,100796.59
2022-10-06T01:58:43.926Z,100797.02
2022-10-06T02:01:12.841Z,100799.36
2022-10-06T02:03:41.601Z,100802.77
2022-10-06T02:06:10.995Z,100801.11
2022-10-06T02:08:39.459Z,100796.95
2022-10-06T02:11:10.664Z,100800.77
2022-10-06T02:13:47.268Z,100802.97
2022-10-06T02:16:15.770Z,100808.14
2022-10-06T02:18:44.758Z,100807.82
2022-10-06T02:21:16.641Z,100808.11
2022-10-06T02:23:44.931Z,100810.70
2022-10-06T02:26:13.632Z,100815.17
2022-10-06T02:28:43.368Z,100816.77
2022-10-06T02:31:13.917Z,100818.25
2022-10-06T02:33:43.210Z,100814.81
2022-10-06T02:36:14.825Z,100822.56
2022-10-06T02:38:43.405Z,100823.09
2022-10-06T02:41:11.931Z,100826.25
2022-10-06T02:43:40.135Z,100832.41
2022-10-06T02:46:11.384Z,100837.16
2022-10-06T02:48:40.993Z,100839.06
2022-10-06T02:51:13.269Z,100843.67
2022-10-06T02:53:43.334Z,100844.58
2022-10-06T02:56:15.305Z,100846.18
2022-10-06T02:58:44.466Z,100845.14
2022-10-06T03:01:17.584Z,100848.04
2022-10-06T03:03:46.385Z,100849.80
2022-10-06T03:06:22.426Z,100851.11
2022-10-06T03:08:58.029Z,100850.40
2022-10-06T03:11:29.039Z,100855.15
2022-10-06T03:13:58.688Z,100859.67
2022-10-06T03:16:30.348Z,100863.05
2022-10-06T03:19:00.336Z,100861.55
2022-10-06T03:21:30.624Z,100864.91
2022-10-06T03:23:59.886Z,100870.54
2022-10-06T03:26:31.871Z,100873.66
2022-10-06T03:29:00.606Z,100875.60
2022-10-06T03:31:29.222Z,100874.08
2022-10-06T03:33:57.949Z,100881.98
2022-10-06T03:36:31.689Z,100880.18
2022-10-06T03:39:00.822Z,100886.14
2022-10-06T03:41:31.574Z,100888.80
2022-10-06T03:44:00.795Z,100886.83
2022-10-06T03:46:31.033Z,100885.96
2022-10-06T03:49:00.907Z,100890.43
2022-10-06T03:51:31.918Z,100893.08
2022-10-06T03:54:00.704Z,100895.96
2022-10-06T03:56:31.448Z,100900.48
2022-10-06T03:59:01.458Z,100900.95
2022-10-06T04:01:32.397Z,100902.84
2022-10-06T04:04:03.605Z,100905.60
2022-10-06T04:06:35.124Z,100906.04
2022-10-06T04:09:04.948Z,100906.86
2022-10-06T04:11:35.273Z,100907.42
2022-10-06T04:14:05.733Z,100912.84
2022-10-06T04:16:36.137Z,100911.31
2022-10-06T04:19:06.796Z,100911.80
2022-10-06T04:21:36.568Z,100917.69
2022-10-06T04:24:07.481Z,100920.24
2022-10-06T04:26:39.341Z,100923.10
2022-10-06T04:29:07.991Z,100926.10
2022-10-06T04:31:38.329Z,100931.10
2022-10-06T04:34:12.464Z,100932.76
2022-10-06T04:36:43.340Z,100934.08
2022-10-06T04:39:15.739Z,100937.28
2022-10-06T04:41:46.603Z,100934.33
2022-10-06T04:44:18.890Z,100934.41
2022-10-06T04:46:47.664Z,100938.62
2022-10-06T04:49:20.400Z,100938.04
2022-10-06T04:51:51.299Z,100940.92
2022-10-06T04:54:19.868Z,100939.31
2022-10-06T04:56:51.740Z,100943.45
2022-10-06T04:59:43.472Z,100947.13
2022-10-06T05:02:13.030Z,100946.75
2022-10-06T05:04:42.511Z,100954.16
2022-10-06T05:07:11.416Z,100955.30
2022-10-06T05:09:39.636Z,100954.40
2022-10-06T05:12:10.172Z,100955.30
2022-10-06T05:14:38.416Z,100957.22
2022-10-06T05:17:07.150Z,100960.87
2022-10-06T05:19:36.458Z,100966.70
2022-10-06T05:22:05.045Z,100966.71
2022-10-06T05:24:34.203Z,100969.61
2022-10-06T05:27:03.202Z,100972.31
2022-10-06T05:29:33.726Z,100981.02
2022-10-06T05:32:02.213Z,100986.70
2022-10-06T05:34:30.876Z,100990.50
2022-10-06T05:36:59.214Z,100994.55
2022-10-06T05:39:27.472Z,100995.89
2022-10-06T05:41:58.493Z,100995.04
2022-10-06T05:44:27.770Z,100999.55
2022-10-06T05:46:57.516Z,101005.02
2022-10-06T05:49:25.735Z,101013.20
2022-10-06T05:52:00.076Z,101016.61
2022-10-06T05:54:30.127Z,101025.44
2022-10-06T05:56:58.410Z,101029.45
2022-10-06T05:59:26.781Z,101032.04
2022-10-06T06:01:56.789Z,101038.67
2022-10-06T06:04:36.138Z,101039.55
2022-10-06T06:07:04.592Z,101047.21
2022-10-06T06:09:32.838Z,101053.77
2022-10-06T06:12:02.667Z,101053.46
2022-10-06T06:15:02.705Z,101056.41
2022-10-06T06:17:35.244Z,101057.48
2022-10-06T06:20:07.777Z,101062.75
2022-10-06T06:22:36.021Z,101067.35
2022-10-06T06:25:07.977Z,101070.80
2022-10-06T06:27:36.285Z,101077.01
2022-10-06T06:30:07.456Z,101076.66
2022-10-06T06:32:36.546Z,101080.42
2022-10-06T06:35:09.757Z,101085.14
2022-10-06T06:37:38.491Z,101090.31
2022-10-06T06:40:08.915Z,101098.63
2022-10-06T06:42:39.272Z,101106.73
2022-10-06T06:45:33.496Z,101113.45
2022-10-06T06:48:13.194Z,101111.77
2022-10-06T06:50:41.473Z,101120.27
2022-10-06T06:53:15.479Z,101133.13
2022-10-06T06:55:50.227Z,101134.44
2022-10-06T06:58:19.706Z,101138.89
2022-10-06T07:00:48.588Z,101147.37
2022-10-06T07:03:38.577Z,101156.95
2022-10-06T07:06:10.226Z,101162.77
2022-10-06T07:08:42.365Z,101166.77
2022-10-06T07:11:19.289Z,101172.66
2022-10-06T07:13:52.161Z,101174.86
2022-10-06T07:16:40.170Z,101181.03
2022-10-06T07:19:29.118Z,101179.00
2022-10-06T07:22:18.150Z,101180.58
2022-10-06T07:25:04.470Z,101179.90
2022-10-06T07:27:35.644Z,101190.48
2022-10-06T07:30:05.305Z,101199.00
2022-10-06T07:32:33.725Z,101200.73
2022-10-06T07:35:02.387Z,101203.11
2022-10-06T07:37:30.648Z,101205.02
2022-10-06T07:40:00.172Z,101208.20
2022-10-06T07:42:28.688Z,101208.29
2022-10-06T07:45:15.741Z,101211.69
2022-10-06T07:47:44.316Z,101213.30
2022-10-06T07:50:13.094Z,101214.34
2022-10-06T07:52:41.725Z,101215.58
2022-10-06T07:55:16.763Z,101224.02
2022-10-06T07:58:04.052Z,101230.67
2022-10-06T08:03:06.701Z,101238.40
2022-10-06T08:05:35.425Z,101243.27
2022-10-06T08:08:03.667Z,101248.30
2022-10-06T08:10:32.280Z,101256.94
2022-10-06T08:13:04.453Z,101260.17
2022-10-06T08:15:32.773Z,101269.10
2022-10-06T08:18:02.048Z,101276.98
2022-10-06T08:20:30.408Z,101281.85
2022-10-06T08:22:58.568Z,101286.45
2022-10-06T08:25:26.882Z,101290.98
2022-10-06T08:27:55.258Z,101297.59
2022-10-06T08:30:26.448Z,101301.75
2022-10-06T08:32:55.955Z,101309.89
2022-10-06T08:35:24.557Z,101310.14
2022-10-06T08:37:53.648Z,101315.36
2022-10-06T08:40:22.315Z,101321.84
2022-10-06T08:42:53.564Z,101322.14
2022-10-06T08:45:24.166Z,101327.89
2022-10-06T08:48:00.007Z,101333.13
2022-10-06T08:50:32.946Z,101335.34
2022-10-06T08:53:14.072Z,101345.05
2022-10-06T08:55:50.612Z,101343.83
2022-10-06T08:58:34.927Z,101346.02
2022-10-06T09:01:14.894Z,101353.85
2022-10-06T09:03:48.017Z,101354.88
2022-10-06T09:06:27.645Z,101359.07
2022-10-06T09:09:01.122Z,101367.67
2022-10-06T09:11:53.137Z,101370.20
2022-10-06T09:14:29.484Z,101365.02
2022-10-06T09:17:04.756Z,101368.16
2022-10-06T09:19:41.595Z,101375.48
2022-10-06T09:22:17.029Z,101371.14
2022-10-06T09:24:49.635Z,101379.36
2022-10-06T09:27:19.155Z,101372.67
2022-10-06T09:29:48.351Z,101379.38
2022-10-06T09:32:18.268Z,101382.80
2022-10-06T09:34:51.441Z,101386.98
2022-10-06T09:37:21.602Z,101390.73
2022-10-06T09:39:51.581Z,101392.84
2022-10-06T09:42:22.508Z,101391.73
2022-10-06T09:44:58.431Z,101401.73
2022-10-06T09:47:39.018Z,101401.14
2022-10-06T09:50:21.078Z,101413.75
2022-10-06T09:53:12.100Z,101417.62
2022-10-06T09:55:51.311Z,101426.30
2022-10-06T09:58:25.930Z,101429.39
2022-10-06T10:00:56.298Z,101430.27
2022-10-06T10:03:26.173Z,101446.88
2022-10-06T10:05:55.308Z,101450.21
2022-10-06T10:08:25.690Z,101459.64
2022-10-06T10:11:36.360Z,101459.52
2022-10-06T10:14:14.527Z,101466.34
2022-10-06T10:16:43.470Z,101470.14
2022-10-06T10:19:24.123Z,101471.39
2022-10-06T10:21:55.506Z,101474.73
2022-10-06T10:24:40.944Z,101483.23
2022-10-06T10:27:17.748Z,101479.93
2022-10-06T10:30:00.996Z,101483.55
2022-10-06T10:32:45.217Z,101486.95
2022-10-06T10:35:20.351Z,101489.09
2022-10-06T10:37:52.539Z,101480.80
2022-10-06T10:40:34.729Z,101486.03
2022-10-06T10:43:20.311Z,101486.08
2022-10-06T10:45:52.004Z,101493.69
2022-10-06T10:48:27.411Z,101490.75
2022-10-06T10:51:03.709Z,101495.35
2022-10-06T10:53:42.977Z,101490.27
2022-10-06T10:56:15.580Z,101492.57
2022-10-06T10:58:47.332Z,101499.52
2022-10-06T11:01:34.774Z,101498.20
2022-10-06T11:04:03.650Z,101501.38
2022-10-06T11:07:08.479Z,101509.41
2022-10-06T11:09:46.206Z,101517.29
2022-10-06T11:12:26.687Z,101515.41
2022-10-06T11:15:01.017Z,101520.67
2022-10-06T11:17:43.351Z,101516.92
2022-10-06T11:20:23.300Z,101520.10
2022-10-06T11:22:59.402Z,101521.66
2022-10-06T11:25:35.989Z,101520.27
2022-10-06T11:28:11.668Z,101528.91
2022-10-06T11:30:55.156Z,101526.54
2022-10-06T11:33:29.127Z,101534.23
2022-10-06T11:35:57.517Z,101546.14
2022-10-06T11:38:33.438Z,101546.84
2022-10-06T11:41:11.086Z,101543.67
2022-10-06T11:43:46.815Z,101546.89
2022-10-06T11:46:36.908Z,101548.04
2022-10-06T11:49:51.392Z,101553.13
2022-10-06T11:52:45.123Z,101556.77
2022-10-06T11:55:23.183Z,101561.15
2022-10-06T11:58:37.476Z,101562.66
2022-10-06T12:01:01.652Z,101562.23
2022-10-06T12:03:47.084Z,101569.35
2022-10-06T12:06:47.792Z,101573.85
2022-10-06T12:09:52.449Z,101577.83
2022-10-06T12:13:06.162Z,101580.83
2022-10-06T12:19:18.603Z,101579.96
2022-10-06T12:21:53.594Z,101582.21
2022-10-06T12:24:41.149Z,101581.71
2022-10-06T12:27:34.944Z,101580.22
2022-10-06T12:30:16.953Z,101580.77
2022-10-06T12:32:54.881Z,101585.28
2022-10-06T12:35:34.512Z,101588.73
2022-10-06T12:38:06.860Z,101592.30
2022-10-06T12:40:54.764Z,101592.48
2022-10-06T12:43:53.048Z,101604.17
2022-10-06T12:46:28.171Z,101606.26
2022-10-06T12:49:31.354Z,101613.65
2022-10-06T12:52:20.414Z,101608.94
2022-10-06T12:55:00.160Z,101612.03
2022-10-06T12:57:30.122Z,101615.29
2022-10-06T12:59:59.246Z,101611.48
2022-10-06T13:02:28.537Z,101608.30
2022-10-06T13:04:59.596Z,101613.39
2022-10-06T13:07:30.513Z,101614.69
2022-10-06T13:10:18.889Z,101612.35
2022-10-06T13:12:49.672Z,101617.95
2022-10-06T13:15:22.683Z,101617.76
2022-10-06T13:17:54.127Z,101623.22
2022-10-06T13:20:32.538Z,101632.77
2022-10-06T13:23:03.510Z,101632.08
2022-10-06T13:25:39.748Z,101640.14
2022-10-06T13:28:21.596Z,101642.41
2022-10-06T13:30:54.790Z,101637.73
2022-10-06T13:33:25.368Z,101639.93
2022-10-06T13:35:54.664Z,101641.40
2022-10-06T13:38:23.122Z,101648.95
2022-10-06T13:41:07.097Z,101652.40
2022-10-06T13:43:41.814Z,101659.69
2022-10-06T13:46:14.247Z,101655.30
2022-10-06T13:48:47.846Z,101659.33
2022-10-06T13:51:19.160Z,101661.29
2022-10-06T13:53:47.669Z,101667.31
2022-10-06T13:58:57.670Z,101671.70
2022-10-06T14:01:30.541Z,101677.20
2022-10-06T14:04:17.535Z,101679.83
2022-10-06T14:06:50.068Z,101672.80
2022-10-06T14:09:23.229Z,101680.45
2022-10-06T14:11:53.112Z,101675.39
2022-10-06T14:14:21.762Z,101676.38
2022-10-06T14:16:52.626Z,101682.05
2022-10-06T14:19:35.918Z,101676.57
2022-10-06T14:22:06.011Z,101675.55
2022-10-06T14:24:36.569Z,101677.52
2022-10-06T14:27:06.915Z,101687.80
2022-10-06T14:29:37.271Z,101681.40
2022-10-06T14:32:15.359Z,101680.96
2022-10-06T14:34:44.350Z,101681.57
2022-10-06T14:37:14.696Z,101688.09
2022-10-06T14:39:44.819Z,101694.03
2022-10-06T14:42:14.809Z,101691.83
2022-10-06T14:44:44.105Z,101696.67
2022-10-06T14:47:12.359Z,101698.36
2022-10-06T14:49:40.672Z,101696.97
2022-10-06T14:52:09.964Z,101699.17
2022-10-06T14:54:38.490Z,101700.84
2022-10-06T14:57:08.545Z,101697.20
2022-10-06T14:59:36.981Z,101701.05
2022-10-06T15:02:05.231Z,101703.43
2022-10-06T15:04:33.670Z,101699.61
2022-10-06T15:07:20.331Z,101704.59
2022-10-06T15:09:48.623Z,101706.05
2022-10-06T15:12:17.167Z,101707.54
2022-10-06T15:14:45.931Z,101712.02
2022-10-06T15:17:14.540Z,101710.64
2022-10-06T15:19:43.052Z,101716.16
2022-10-06T15:22:11.457Z,101724.20
2022-10-06T15:24:39.909Z,101723.17
2022-10-06T15:27:27.389Z,101724.40
2022-10-06T15:29:59.896Z,101729.98
2022-10-06T15:32:27.530Z,101728.50
2022-10-06T15:34:55.840Z,101732.50
2022-10-06T15:37:30.101Z,101740.48
2022-10-06T15:39:58.807Z,101734.38
2022-10-06T15:42:27.143Z,101743.16
2022-10-06T15:44:55.526Z,101741.35
2022-10-06T15:47:24.204Z,101743.99
2022-10-06T15:49:52.575Z,101742.27
2022-10-06T15:52:20.830Z,101740.66
2022-10-06T15:54:49.102Z,101746.48
2022-10-06T15:57:20.946Z,101748.58
2022-10-06T15:59:50.584Z,101745.46
2022-10-06T16:02:21.586Z,101749.06
2022-10-06T16:05:16.093Z,101749.44
2022-10-06T16:07:44.534Z,101759.38
2022-10-06T16:10:12.831Z,101762.80
2022-10-06T16:12:41.118Z,101760.77
2022-10-06T16:15:10.768Z,101761.38
2022-10-06T16:17:39.062Z,101762.39
2022-10-06T16:20:10.781Z,101769.13
2022-10-06T16:22:39.319Z,101773.02
2022-10-06T16:25:08.938Z,101772.79
2022-10-06T16:27:38.716Z,101780.88
2022-10-06T16:30:09.417Z,101785.05
2022-10-06T16:32:38.046Z,101788.77
2022-10-06T16:35:08.366Z,101791.64
2022-10-06T16:37:36.601Z,101791.86
2022-10-06T16:40:06.394Z,101793.41
2022-10-06T16:42:34.926Z,101797.22
2022-10-06T16:45:03.283Z,101801.11
2022-10-06T16:47:31.498Z,101806.59
2022-10-06T16:49:59.694Z,101815.23
2022-10-06T16:52:27.934Z,101816.34
2022-10-06T16:54:56.836Z,101817.77
2022-10-06T16:57:25.286Z,101825.19
2022-10-06T16:59:54.109Z,101828.57
2022-10-06T17:02:23.083Z,101827.88
2022-10-06T17:04:54.223Z,101833.48
2022-10-06T17:07:23.365Z,101836.52
2022-10-06T17:10:15.761Z,101838.70
2022-10-06T17:12:42.390Z,101840.27
2022-10-06T17:15:12.499Z,101841.43
2022-10-06T17:17:41.416Z,101837.20
2022-10-06T17:20:10.670Z,101837.20
2022-10-06T17:22:40.129Z,101839.61
2022-10-06T17:25:09.833Z,101840.90
2022-10-06T17:27:41.938Z,101845.36
2022-10-06T17:30:14.306Z,101847.19
2022-10-06T17:32:43.912Z,101842.79
2022-10-06T17:35:12.125Z,101844.12
2022-10-06T17:37:40.563Z,101849.11
2022-10-06T17:40:09.371Z,101843.77
2022-10-06T17:42:38.122Z,101842.36
2022-10-06T17:45:08.238Z,101839.56
2022-10-06T17:47:36.716Z,101839.95
2022-10-06T17:50:06.852Z,101840.05
2022-10-06T17:52:38.380Z,101839.48
2022-10-06T17:55:09.808Z,101844.86
2022-10-06T17:57:39.449Z,101844.75
2022-10-06T18:00:10.396Z,101847.61
2022-10-06T18:02:42.062Z,101848.70
2022-10-06T18:05:10.894Z,101848.73
2022-10-06T18:07:43.990Z,101852.05
2022-10-06T18:10:30.944Z,101852.93
2022-10-06T18:12:59.741Z,101858.33
2022-10-06T18:15:28.301Z,101854.96
2022-10-06T18:17:57.257Z,101859.83
2022-10-06T18:20:29.294Z,101861.81
2022-10-06T18:22:57.968Z,101860.92
2022-10-06T18:25:27.210Z,101855.27
2022-10-06T18:27:55.696Z,101859.32
2022-10-06T18:30:29.324Z,101860.81
2022-10-06T18:38:43.367Z,101873.02
2022-10-06T18:41:13.909Z,101873.92
2022-10-06T18:43:42.364Z,101874.74
2022-10-06T18:46:31.728Z,101874.96
2022-10-06T18:49:05.157Z,101875.02
2022-10-06T18:51:36.302Z,101873.86
2022-10-06T18:54:08.004Z,101875.23
2022-10-06T18:56:37.670Z,101878.77
2022-10-06T18:59:09.709Z,101880.98
2022-10-06T19:01:40.472Z,101883.21
2022-10-06T19:04:13.376Z,101886.30
2022-10-06T19:06:47.962Z,101888.06
2022-10-06T19:09:18.655Z,101887.94
2022-10-06T19:11:51.501Z,101893.41
2022-10-06T19:14:22.720Z,101895.30
2022-10-06T19:16:55.870Z,101891.98
2022-10-06T19:19:26.684Z,101900.48
2022-10-06T19:21:58.767Z,101896.30
2022-10-06T19:24:34.081Z,101899.10
2022-10-06T19:27:03.876Z,101896.58
2022-10-06T19:29:36.403Z,101901.73
2022-10-06T19:32:06.919Z,101902.40
2022-10-06T19:34:37.954Z,101903.44
2022-10-06T19:37:06.629Z,101902.20
2022-10-06T19:39:42.090Z,101904.84
2022-10-06T19:42:30.789Z,101908.27
2022-10-06T19:44:59.753Z,101911.42
2022-10-06T19:47:29.350Z,101914.01
2022-10-06T19:50:02.061Z,101916.85
2022-10-06T19:52:32.324Z,101917.04
2022-10-06T19:55:01.366Z,101917.10
2022-10-06T19:57:31.844Z,101917.20
2022-10-06T20:00:00.826Z,101917.77
2022-10-06T20:02:29.410Z,101919.42
2022-10-06T20:04:58.134Z,101924.21
2022-10-06T20:07:27.607Z,101927.98
2022-10-06T20:09:56.490Z,101929.14
2022-10-06T20:12:26.191Z,101930.21
2022-10-06T20:14:54.415Z,101922.70
2022-10-06T20:17:23.141Z,101928.66
2022-10-06T20:19:57.811Z,101934.23
2022-10-06T20:22:26.532Z,101934.04
2022-10-06T20:24:54.799Z,101931.32
2022-10-06T20:27:23.072Z,101941.27
2022-10-06T20:29:51.559Z,101944.33
2022-10-06T20:32:20.802Z,101937.25
2022-10-06T20:34:49.076Z,101936.34
2022-10-06T20:37:17.460Z,101938.90
2022-10-06T20:40:04.343Z,101942.48
2022-10-06T20:42:33.175Z,101946.45
2022-10-06T20:45:01.722Z,101945.52
2022-10-06T20:47:30.329Z,101943.10
2022-10-06T20:49:58.509Z,101941.61
2022-10-06T20:52:27.090Z,101947.00
2022-10-06T20:54:55.411Z,101948.57
2022-10-06T20:57:23.591Z,101950.38
2022-10-06T20:59:51.835Z,101946.77
2022-10-06T21:02:20.837Z,101950.95
2022-10-06T21:04:49.479Z,101956.05
2022-10-06T21:07:17.972Z,101956.09
2022-10-06T21:09:51.224Z,101952.92
2022-10-06T21:12:20.720Z,101949.07
2022-10-06T21:14:49.144Z,101952.79
2022-10-06T21:17:18.344Z,101950.22
2022-10-06T21:19:46.919Z,101948.27
2022-10-06T21:22:15.212Z,101949.21
2022-10-06T21:24:43.971Z,101946.16
2022-10-06T21:27:12.550Z,101946.95
2022-10-06T21:29:40.834Z,101947.05
2022-10-06T21:32:09.559Z,101944.39
2022-10-06T21:34:38.746Z,101941.48
2022-10-06T21:37:07.401Z,101944.70
2022-10-06T21:39:36.024Z,101947.21
2022-10-06T21:42:04.925Z,101942.64
2022-10-06T21:44:33.240Z,101944.45
2022-10-06T21:47:02.085Z,101938.27
2022-10-06T21:49:30.426Z,101943.70
2022-10-06T21:52:03.050Z,101946.39
2022-10-06T21:54:31.636Z,101943.05
2022-10-06T21:57:00.116Z,101943.41
2022-10-06T21:59:28.513Z,101943.42
2022-10-06T22:01:57.087Z,101943.05
2022-10-06T22:04:25.994Z,101939.88
2022-10-06T22:06:54.278Z,101943.31
2022-10-06T22:09:23.005Z,101945.80
2022-10-06T22:11:51.303Z,101948.36
2022-10-06T22:14:20.175Z,101941.34
2022-10-06T22:16:48.871Z,101940.25
2022-10-06T22:19:18.060Z,101943.48
2022-10-06T22:21:47.766Z,101947.25
2022-10-06T22:24:19.282Z,101943.10
2022-10-06T22:27:00.926Z,101939.09
2022-10-06T22:29:30.509Z,101942.55
2022-10-06T22:31:59.032Z,101939.87
2022-10-06T22:34:27.935Z,101943.45
2022-10-06T22:36:56.449Z,101943.48
2022-10-06T22:39:25.056Z,101942.47
2022-10-06T22:41:53.333Z,101935.98
2022-10-06T22:44:21.659Z,101932.92
2022-10-06T22:46:50.132Z,101935.45
2022-10-06T22:49:18.751Z,101936.71
2022-10-06T22:51:47.274Z,101936.31
2022-10-06T22:54:18.606Z,101937.06
2022-10-06T22:56:46.933Z,101937.45
2022-10-06T22:59:15.478Z,101937.09
2022-10-06T23:01:43.803Z,101941.97
2022-10-06T23:04:12.054Z,101938.36
2022-10-06T23:06:40.482Z,101937.09
2022-10-06T23:09:08.752Z,101938.89
2022-10-06T23:11:36.962Z,101938.89
2022-10-06T23:14:05.316Z,101942.15
2022-10-06T23:16:36.349Z,101947.02
2022-10-06T23:19:04.703Z,101940.33
2022-10-06T23:21:33.308Z,101948.48
2022-10-06T23:24:01.594Z,101947.58
2022-10-06T23:26:31.632Z,101947.21
2022-10-06T23:29:00.749Z,101946.14
2022-10-06T23:31:29.674Z,101950.29
2022-10-06T23:33:58.572Z,101946.66
2022-10-06T23:36:26.861Z,101942.45
2022-10-06T23:38:55.540Z,101941.47
2022-10-06T23:41:23.847Z,101943.66
2022-10-06T23:43:52.823Z,101934.98
2022-10-06T23:46:21.155Z,101937.86
2022-10-06T23:48:49.645Z,101941.45
2022-10-06T23:51:17.890Z,101937.83
2022-10-06T23:53:46.644Z,101934.00
2022-10-06T23:56:15.169Z,101937.14
2022-10-06T23:58:43.734Z,101936.40
